sensor_id;sensor_type;location;lat;lon;timestamp;P1;durP1;ratioP1;P2;durP2;ratioP2
21297;SDS011;10808;48.010;11.326;2022-11-03T00:02:12;6.88;;;2.90;;
21297;SDS011;10808;48.010;11.326;2022-11-03T00:04:38;4.88;;;3.00;;
21297;SDS011;10808;48.010;11.326;2022-11-03T00:07:04;7.40;;;3.13;;
21297;SDS011;10808;48.010;11.326;2022-11-03T00:09:30;8.80;;;3.22;;
21297;SDS011;10808;48.010;11.326;2022-11-03T00:11:57;5.82;;;3.03;;
21297;SDS011;10808;48.010;11.326;2022-11-03T00:14:23;10.50;;;3.50;;
21297;SDS011;10808;48.010;11.326;2022-11-03T00:16:49;5.60;;;3.50;;
21297;SDS011;10808;48.010;11.326;2022-11-03T00:19:15;7.75;;;3.97;;
21297;SDS011;10808;48.010;11.326;2022-11-03T00:21:41;12.05;;;4.28;;
21297;SDS011;10808;48.010;11.326;2022-11-03T00:24:08;10.35;;;4.18;;
21297;SDS011;10808;48.010;11.326;2022-11-03T00:26:37;9.13;;;4.50;;
21297;SDS011;10808;48.010;11.326;2022-11-03T00:29:08;10.98;;;4.38;;
21297;SDS011;10808;48.010;11.326;2022-11-03T00:31:36;9.60;;;4.38;;
21297;SDS011;10808;48.010;11.326;2022-11-03T00:34:03;10.13;;;4.70;;
21297;SDS011;10808;48.010;11.326;2022-11-03T00:36:31;13.02;;;5.18;;
21297;SDS011;10808;48.010;11.326;2022-11-03T00:39:04;13.40;;;5.60;;
21297;SDS011;10808;48.010;11.326;2022-11-03T00:41:30;10.77;;;5.05;;
21297;SDS011;10808;48.010;11.326;2022-11-03T00:43:56;10.93;;;5.30;;
21297;SDS011;10808;48.010;11.326;2022-11-03T00:46:23;12.05;;;5.43;;
21297;SDS011;10808;48.010;11.326;2022-11-03T00:48:49;10.88;;;5.00;;
21297;SDS011;10808;48.010;11.326;2022-11-03T00:53:53;9.98;;;4.45;;
21297;SDS011;10808;48.010;11.326;2022-11-03T00:56:22;13.15;;;4.95;;
21297;SDS011;10808;48.010;11.326;2022-11-03T00:58:52;9.85;;;4.60;;
21297;SDS011;10808;48.010;11.326;2022-11-03T01:01:26;10.27;;;4.45;;
21297;SDS011;10808;48.010;11.326;2022-11-03T01:03:57;9.88;;;4.25;;
21297;SDS011;10808;48.010;11.326;2022-11-03T01:06:44;10.73;;;4.40;;
21297;SDS011;10808;48.010;11.326;2022-11-03T01:09:24;10.77;;;4.30;;
21297;SDS011;10808;48.010;11.326;2022-11-03T01:11:57;8.18;;;3.90;;
21297;SDS011;10808;48.010;11.326;2022-11-03T01:14:26;7.87;;;4.07;;
21297;SDS011;10808;48.010;11.326;2022-11-03T01:16:54;10.88;;;4.35;;
21297;SDS011;10808;48.010;11.326;2022-11-03T01:19:20;8.45;;;4.30;;
21297;SDS011;10808;48.010;11.326;2022-11-03T01:21:46;11.23;;;4.33;;
21297;SDS011;10808;48.010;11.326;2022-11-03T01:24:12;10.32;;;4.78;;
21297;SDS011;10808;48.010;11.326;2022-11-03T01:26:39;9.20;;;4.53;;
21297;SDS011;10808;48.010;11.326;2022-11-03T01:29:05;10.82;;;4.60;;
21297;SDS011;10808;48.010;11.326;2022-11-03T01:31:31;9.88;;;4.43;;
21297;SDS011;10808;48.010;11.326;2022-11-03T01:33:58;10.68;;;4.07;;
21297;SDS011;10808;48.010;11.326;2022-11-03T01:36:24;6.60;;;3.67;;
21297;SDS011;10808;48.010;11.326;2022-11-03T01:38:50;7.80;;;4.53;;
21297;SDS011;10808;48.010;11.326;2022-11-03T01:41:18;7.60;;;3.83;;
21297;SDS011;10808;48.010;11.326;2022-11-03T01:44:18;10.80;;;4.75;;
21297;SDS011;10808;48.010;11.326;2022-11-03T01:46:39;7.57;;;3.85;;
21297;SDS011;10808;48.010;11.326;2022-11-03T01:52:23;7.68;;;3.58;;
21297;SDS011;10808;48.010;11.326;2022-11-03T01:55:02;6.60;;;3.38;;
21297;SDS011;10808;48.010;11.326;2022-11-03T01:57:34;7.50;;;3.65;;
21297;SDS011;10808;48.010;11.326;2022-11-03T02:00:05;6.55;;;3.83;;
21297;SDS011;10808;48.010;11.326;2022-11-03T02:02:32;7.50;;;3.42;;
21297;SDS011;10808;48.010;11.326;2022-11-03T02:04:58;8.23;;;4.10;;
21297;SDS011;10808;48.010;11.326;2022-11-03T02:07:46;8.68;;;3.72;;
21297;SDS011;10808;48.010;11.326;2022-11-03T02:10:23;7.32;;;3.60;;
21297;SDS011;10808;48.010;11.326;2022-11-03T02:12:49;8.50;;;3.95;;
21297;SDS011;10808;48.010;11.326;2022-11-03T02:15:16;6.73;;;3.80;;
21297;SDS011;10808;48.010;11.326;2022-11-03T02:17:46;6.73;;;3.57;;
21297;SDS011;10808;48.010;11.326;2022-11-03T02:20:15;5.75;;;3.40;;
21297;SDS011;10808;48.010;11.326;2022-11-03T02:22:47;5.67;;;2.90;;
21297;SDS011;10808;48.010;11.326;2022-11-03T02:27:58;8.27;;;3.42;;
21297;SDS011;10808;48.010;11.326;2022-11-03T02:30:30;4.57;;;3.30;;
21297;SDS011;10808;48.010;11.326;2022-11-03T02:33:26;7.43;;;3.20;;
21297;SDS011;10808;48.010;11.326;2022-11-03T02:36:23;4.93;;;3.17;;
21297;SDS011;10808;48.010;11.326;2022-11-03T02:38:59;7.55;;;3.50;;
21297;SDS011;10808;48.010;11.326;2022-11-03T02:41:30;8.27;;;3.30;;
21297;SDS011;10808;48.010;11.326;2022-11-03T02:43:59;5.80;;;3.07;;
21297;SDS011;10808;48.010;11.326;2022-11-03T02:46:27;5.65;;;3.28;;
21297;SDS011;10808;48.010;11.326;2022-11-03T02:48:56;5.57;;;3.10;;
21297;SDS011;10808;48.010;11.326;2022-11-03T02:51:23;7.20;;;3.42;;
21297;SDS011;10808;48.010;11.326;2022-11-03T02:56:37;6.78;;;3.08;;
21297;SDS011;10808;48.010;11.326;2022-11-03T02:59:10;5.88;;;3.00;;
21297;SDS011;10808;48.010;11.326;2022-11-03T03:01:43;5.47;;;3.33;;
21297;SDS011;10808;48.010;11.326;2022-11-03T03:04:28;6.65;;;3.22;;
21297;SDS011;10808;48.010;11.326;2022-11-03T03:07:18;8.25;;;3.40;;
21297;SDS011;10808;48.010;11.326;2022-11-03T03:12:33;6.72;;;3.17;;
21297;SDS011;10808;48.010;11.326;2022-11-03T03:15:02;5.22;;;3.20;;
21297;SDS011;10808;48.010;11.326;2022-11-03T03:20:30;6.40;;;3.65;;
21297;SDS011;10808;48.010;11.326;2022-11-03T03:25:42;7.60;;;3.63;;
21297;SDS011;10808;48.010;11.326;2022-11-03T03:28:18;7.68;;;3.65;;
21297;SDS011;10808;48.010;11.326;2022-11-03T03:31:03;7.93;;;3.70;;
21297;SDS011;10808;48.010;11.326;2022-11-03T03:33:32;9.63;;;4.30;;
21297;SDS011;10808;48.010;11.326;2022-11-03T03:36:00;7.53;;;3.92;;
21297;SDS011;10808;48.010;11.326;2022-11-03T03:38:31;8.75;;;3.80;;
21297;SDS011;10808;48.010;11.326;2022-11-03T03:41:02;6.85;;;4.00;;
21297;SDS011;10808;48.010;11.326;2022-11-03T03:43:28;7.47;;;3.70;;
21297;SDS011;10808;48.010;11.326;2022-11-03T03:45:59;6.47;;;4.07;;
21297;SDS011;10808;48.010;11.326;2022-11-03T03:48:30;5.72;;;3.42;;
21297;SDS011;10808;48.010;11.326;2022-11-03T03:50:56;7.78;;;3.80;;
21297;SDS011;10808;48.010;11.326;2022-11-03T03:53:26;6.65;;;3.70;;
21297;SDS011;10808;48.010;11.326;2022-11-03T03:55:54;6.45;;;3.80;;
21297;SDS011;10808;48.010;11.326;2022-11-03T03:58:20;7.25;;;4.00;;
21297;SDS011;10808;48.010;11.326;2022-11-03T04:00:46;5.78;;;4.07;;
21297;SDS011;10808;48.010;11.326;2022-11-03T04:03:19;6.40;;;3.50;;
21297;SDS011;10808;48.010;11.326;2022-11-03T04:05:47;6.28;;;3.90;;
21297;SDS011;10808;48.010;11.326;2022-11-03T04:08:13;9.02;;;4.00;;
21297;SDS011;10808;48.010;11.326;2022-11-03T04:10:40;6.47;;;3.70;;
21297;SDS011;10808;48.010;11.326;2022-11-03T04:13:26;6.55;;;4.15;;
21297;SDS011;10808;48.010;11.326;2022-11-03T04:16:11;8.05;;;4.38;;
21297;SDS011;10808;48.010;11.326;2022-11-03T04:19:10;8.25;;;4.57;;
21297;SDS011;10808;48.010;11.326;2022-11-03T04:21:55;8.77;;;4.75;;
21297;SDS011;10808;48.010;11.326;2022-11-03T04:24:39;10.40;;;5.32;;
21297;SDS011;10808;48.010;11.326;2022-11-03T04:29:59;16.40;;;6.97;;
21297;SDS011;10808;48.010;11.326;2022-11-03T04:32:31;13.07;;;6.28;;
21297;SDS011;10808;48.010;11.326;2022-11-03T04:34:58;14.35;;;6.68;;
21297;SDS011;10808;48.010;11.326;2022-11-03T04:37:28;24.15;;;8.13;;
21297;SDS011;10808;48.010;11.326;2022-11-03T04:39:57;22.20;;;9.70;;
21297;SDS011;10808;48.010;11.326;2022-11-03T04:42:44;18.67;;;10.07;;
21297;SDS011;10808;48.010;11.326;2022-11-03T04:45:20;21.25;;;10.57;;
21297;SDS011;10808;48.010;11.326;2022-11-03T04:47:48;20.00;;;10.20;;
21297;SDS011;10808;48.010;11.326;2022-11-03T04:50:17;22.33;;;10.10;;
21297;SDS011;10808;48.010;11.326;2022-11-03T04:52:45;15.50;;;9.10;;
21297;SDS011;10808;48.010;11.326;2022-11-03T04:55:21;19.98;;;9.30;;
21297;SDS011;10808;48.010;11.326;2022-11-03T04:57:48;13.88;;;8.55;;
21297;SDS011;10808;48.010;11.326;2022-11-03T05:00:22;15.93;;;8.98;;
21297;SDS011;10808;48.010;11.326;2022-11-03T05:02:48;15.82;;;8.50;;
21297;SDS011;10808;48.010;11.326;2022-11-03T05:05:17;29.52;;;8.85;;
21297;SDS011;10808;48.010;11.326;2022-11-03T05:07:48;15.40;;;8.85;;
21297;SDS011;10808;48.010;11.326;2022-11-03T05:10:18;16.45;;;8.70;;
21297;SDS011;10808;48.010;11.326;2022-11-03T05:12:47;16.90;;;8.90;;
21297;SDS011;10808;48.010;11.326;2022-11-03T05:15:35;14.95;;;9.02;;
21297;SDS011;10808;48.010;11.326;2022-11-03T05:18:03;15.88;;;8.20;;
21297;SDS011;10808;48.010;11.326;2022-11-03T05:21:04;93.18;;;10.80;;
21297;SDS011;10808;48.010;11.326;2022-11-03T05:23:36;73.85;;;9.88;;
21297;SDS011;10808;48.010;11.326;2022-11-03T05:26:05;69.03;;;11.20;;
21297;SDS011;10808;48.010;11.326;2022-11-03T05:28:38;58.83;;;9.70;;
21297;SDS011;10808;48.010;11.326;2022-11-03T05:33:49;26.90;;;9.10;;
21297;SDS011;10808;48.010;11.326;2022-11-03T05:36:18;25.88;;;8.55;;
21297;SDS011;10808;48.010;11.326;2022-11-03T05:38:46;58.57;;;9.00;;
21297;SDS011;10808;48.010;11.326;2022-11-03T05:41:14;20.23;;;7.63;;
21297;SDS011;10808;48.010;11.326;2022-11-03T05:43:56;64.07;;;9.27;;
21297;SDS011;10808;48.010;11.326;2022-11-03T05:46:44;38.97;;;8.23;;
21297;SDS011;10808;48.010;11.326;2022-11-03T05:49:10;88.35;;;9.73;;
21297;SDS011;10808;48.010;11.326;2022-11-03T05:51:37;61.53;;;9.63;;
21297;SDS011;10808;48.010;11.326;2022-11-03T05:54:09;50.58;;;8.55;;
21297;SDS011;10808;48.010;11.326;2022-11-03T05:56:43;52.03;;;8.68;;
21297;SDS011;10808;48.010;11.326;2022-11-03T05:59:09;86.97;;;9.47;;
21297;SDS011;10808;48.010;11.326;2022-11-03T06:01:38;76.30;;;10.45;;
21297;SDS011;10808;48.010;11.326;2022-11-03T06:06:53;75.75;;;10.20;;
21297;SDS011;10808;48.010;11.326;2022-11-03T06:09:24;47.97;;;9.32;;
21297;SDS011;10808;48.010;11.326;2022-11-03T06:11:52;63.63;;;11.17;;
21297;SDS011;10808;48.010;11.326;2022-11-03T06:14:22;33.63;;;9.23;;
21297;SDS011;10808;48.010;11.326;2022-11-03T06:16:59;74.20;;;10.90;;
21297;SDS011;10808;48.010;11.326;2022-11-03T06:19:33;73.05;;;10.02;;
21297;SDS011;10808;48.010;11.326;2022-11-03T06:24:49;61.33;;;8.98;;
21297;SDS011;10808;48.010;11.326;2022-11-03T06:27:21;58.72;;;9.07;;
21297;SDS011;10808;48.010;11.326;2022-11-03T06:29:49;42.72;;;8.65;;
21297;SDS011;10808;48.010;11.326;2022-11-03T06:32:21;11.82;;;8.23;;
21297;SDS011;10808;48.010;11.326;2022-11-03T06:34:48;18.70;;;8.23;;
21297;SDS011;10808;48.010;11.326;2022-11-03T06:37:26;22.70;;;7.90;;
21297;SDS011;10808;48.010;11.326;2022-11-03T06:39:57;15.48;;;8.10;;
21297;SDS011;10808;48.010;11.326;2022-11-03T06:42:26;29.80;;;7.90;;
21297;SDS011;10808;48.010;11.326;2022-11-03T06:44:56;8.73;;;6.53;;
21297;SDS011;10808;48.010;11.326;2022-11-03T06:47:23;53.33;;;7.57;;
21297;SDS011;10808;48.010;11.326;2022-11-03T06:49:51;24.25;;;6.80;;
21297;SDS011;10808;48.010;11.326;2022-11-03T06:52:34;23.08;;;7.80;;
21297;SDS011;10808;48.010;11.326;2022-11-03T06:57:34;25.05;;;7.38;;
21297;SDS011;10808;48.010;11.326;2022-11-03T07:00:19;27.85;;;7.95;;
21297;SDS011;10808;48.010;11.326;2022-11-03T07:05:31;26.73;;;7.80;;
21297;SDS011;10808;48.010;11.326;2022-11-03T07:07:59;36.40;;;7.65;;
21297;SDS011;10808;48.010;11.326;2022-11-03T07:10:35;53.08;;;8.40;;
21297;SDS011;10808;48.010;11.326;2022-11-03T07:13:18;54.15;;;8.00;;
21297;SDS011;10808;48.010;11.326;2022-11-03T07:15:49;26.63;;;7.13;;
21297;SDS011;10808;48.010;11.326;2022-11-03T07:18:34;53.97;;;8.18;;
21297;SDS011;10808;48.010;11.326;2022-11-03T07:23:56;60.42;;;9.10;;
21297;SDS011;10808;48.010;11.326;2022-11-03T07:26:25;54.20;;;7.50;;
21297;SDS011;10808;48.010;11.326;2022-11-03T07:28:51;41.63;;;7.97;;
21297;SDS011;10808;48.010;11.326;2022-11-03T07:31:19;29.83;;;7.45;;
21297;SDS011;10808;48.010;11.326;2022-11-03T07:33:49;13.02;;;7.00;;
21297;SDS011;10808;48.010;11.326;2022-11-03T07:36:20;24.25;;;6.95;;
21297;SDS011;10808;48.010;11.326;2022-11-03T07:38:50;14.48;;;7.03;;
21297;SDS011;10808;48.010;11.326;2022-11-03T07:47:44;10.65;;;7.13;;
21297;SDS011;10808;48.010;11.326;2022-11-03T07:50:13;8.40;;;6.70;;
21297;SDS011;10808;48.010;11.326;2022-11-03T07:52:40;16.65;;;7.05;;
21297;SDS011;10808;48.010;11.326;2022-11-03T07:55:08;9.82;;;6.85;;
21297;SDS011;10808;48.010;11.326;2022-11-03T07:57:38;7.95;;;6.47;;
21297;SDS011;10808;48.010;11.326;2022-11-03T08:00:05;13.50;;;6.07;;
21297;SDS011;10808;48.010;11.326;2022-11-03T08:02:49;22.98;;;6.90;;
21297;SDS011;10808;48.010;11.326;2022-11-03T08:05:22;9.00;;;6.90;;
21297;SDS011;10808;48.010;11.326;2022-11-03T08:07:48;9.33;;;6.63;;
21297;SDS011;10808;48.010;11.326;2022-11-03T08:10:14;11.20;;;6.30;;
21297;SDS011;10808;48.010;11.326;2022-11-03T08:12:40;6.53;;;5.80;;
21297;SDS011;10808;48.010;11.326;2022-11-03T08:15:06;8.98;;;6.13;;
21297;SDS011;10808;48.010;11.326;2022-11-03T08:17:33;13.80;;;5.90;;
21297;SDS011;10808;48.010;11.326;2022-11-03T08:19:59;7.10;;;6.40;;
21297;SDS011;10808;48.010;11.326;2022-11-03T08:22:25;9.00;;;6.10;;
21297;SDS011;10808;48.010;11.326;2022-11-03T08:24:51;7.70;;;6.43;;
21297;SDS011;10808;48.010;11.326;2022-11-03T08:27:17;10.38;;;6.85;;
21297;SDS011;10808;48.010;11.326;2022-11-03T08:29:44;6.82;;;6.13;;
21297;SDS011;10808;48.010;11.326;2022-11-03T08:32:10;7.03;;;6.32;;
21297;SDS011;10808;48.010;11.326;2022-11-03T08:34:36;6.47;;;5.78;;
21297;SDS011;10808;48.010;11.326;2022-11-03T08:37:02;6.85;;;5.78;;
21297;SDS011;10808;48.010;11.326;2022-11-03T08:39:28;8.45;;;6.00;;
21297;SDS011;10808;48.010;11.326;2022-11-03T08:41:55;7.63;;;5.60;;
21297;SDS011;10808;48.010;11.326;2022-11-03T08:44:21;7.07;;;5.82;;
21297;SDS011;10808;48.010;11.326;2022-11-03T08:46:47;10.10;;;5.67;;
21297;SDS011;10808;48.010;11.326;2022-11-03T08:49:13;10.57;;;5.45;;
21297;SDS011;10808;48.010;11.326;2022-11-03T08:51:39;7.05;;;5.05;;
21297;SDS011;10808;48.010;11.326;2022-11-03T08:54:05;10.57;;;4.95;;
21297;SDS011;10808;48.010;11.326;2022-11-03T08:56:31;11.13;;;4.38;;
21297;SDS011;10808;48.010;11.326;2022-11-03T08:58:57;6.70;;;4.00;;
21297;SDS011;10808;48.010;11.326;2022-11-03T09:01:23;7.25;;;3.72;;
21297;SDS011;10808;48.010;11.326;2022-11-03T09:03:49;6.90;;;3.88;;
21297;SDS011;10808;48.010;11.326;2022-11-03T09:06:16;10.50;;;4.10;;
21297;SDS011;10808;48.010;11.326;2022-11-03T09:11:32;10.57;;;3.70;;
21297;SDS011;10808;48.010;11.326;2022-11-03T09:14:15;4.50;;;3.60;;
21297;SDS011;10808;48.010;11.326;2022-11-03T09:16:42;6.32;;;3.63;;
21297;SDS011;10808;48.010;11.326;2022-11-03T09:19:13;6.35;;;3.53;;
21297;SDS011;10808;48.010;11.326;2022-11-03T09:21:39;8.50;;;3.65;;
21297;SDS011;10808;48.010;11.326;2022-11-03T09:24:05;5.55;;;3.40;;
21297;SDS011;10808;48.010;11.326;2022-11-03T09:26:31;5.63;;;3.38;;
21297;SDS011;10808;48.010;11.326;2022-11-03T09:28:57;6.25;;;3.72;;
21297;SDS011;10808;48.010;11.326;2022-11-03T09:40:47;5.05;;;3.20;;
21297;SDS011;10808;48.010;11.326;2022-11-03T09:43:13;4.60;;;2.75;;
21297;SDS011;10808;48.010;11.326;2022-11-03T09:48:18;5.82;;;3.10;;
21297;SDS011;10808;48.010;11.326;2022-11-03T09:50:45;4.50;;;2.85;;
21297;SDS011;10808;48.010;11.326;2022-11-03T09:53:29;5.67;;;2.97;;
21297;SDS011;10808;48.010;11.326;2022-11-03T09:58:46;11.13;;;4.10;;
21297;SDS011;10808;48.010;11.326;2022-11-03T10:01:22;9.23;;;3.13;;
21297;SDS011;10808;48.010;11.326;2022-11-03T10:03:57;21.27;;;4.20;;
21297;SDS011;10808;48.010;11.326;2022-11-03T10:06:25;5.32;;;3.20;;
21297;SDS011;10808;48.010;11.326;2022-11-03T10:08:51;4.43;;;3.00;;
21297;SDS011;10808;48.010;11.326;2022-11-03T10:11:17;4.72;;;2.97;;
21297;SDS011;10808;48.010;11.326;2022-11-03T10:13:44;6.32;;;2.97;;
21297;SDS011;10808;48.010;11.326;2022-11-03T10:16:14;4.88;;;3.13;;
21297;SDS011;10808;48.010;11.326;2022-11-03T10:18:45;7.25;;;3.13;;
21297;SDS011;10808;48.010;11.326;2022-11-03T10:23:43;4.57;;;3.17;;
21297;SDS011;10808;48.010;11.326;2022-11-03T10:26:13;6.43;;;2.55;;
21297;SDS011;10808;48.010;11.326;2022-11-03T10:31:54;7.50;;;2.70;;
21297;SDS011;10808;48.010;11.326;2022-11-03T10:37:10;4.90;;;2.58;;
21297;SDS011;10808;48.010;11.326;2022-11-03T10:39:39;6.93;;;2.53;;
21297;SDS011;10808;48.010;11.326;2022-11-03T10:42:07;5.70;;;2.60;;
21297;SDS011;10808;48.010;11.326;2022-11-03T10:44:45;5.45;;;2.47;;
21297;SDS011;10808;48.010;11.326;2022-11-03T10:49:58;7.57;;;2.47;;
21297;SDS011;10808;48.010;11.326;2022-11-03T10:52:43;3.95;;;2.33;;
21297;SDS011;10808;48.010;11.326;2022-11-03T10:55:09;4.53;;;2.40;;
21297;SDS011;10808;48.010;11.326;2022-11-03T10:57:49;4.35;;;2.35;;
21297;SDS011;10808;48.010;11.326;2022-11-03T11:00:17;5.60;;;2.30;;
21297;SDS011;10808;48.010;11.326;2022-11-03T11:05:32;7.17;;;2.60;;
21297;SDS011;10808;48.010;11.326;2022-11-03T11:07:58;7.70;;;2.50;;
21297;SDS011;10808;48.010;11.326;2022-11-03T11:10:25;5.68;;;2.20;;
21297;SDS011;10808;48.010;11.326;2022-11-03T11:15:57;5.35;;;2.22;;
21297;SDS011;10808;48.010;11.326;2022-11-03T11:20:56;5.53;;;2.78;;
21297;SDS011;10808;48.010;11.326;2022-11-03T11:28:43;7.03;;;2.38;;
21297;SDS011;10808;48.010;11.326;2022-11-03T11:31:44;6.85;;;2.53;;
21297;SDS011;10808;48.010;11.326;2022-11-03T11:36:42;5.50;;;3.00;;
21297;SDS011;10808;48.010;11.326;2022-11-03T11:52:42;5.45;;;2.70;;
21297;SDS011;10808;48.010;11.326;2022-11-03T11:55:15;3.85;;;2.50;;
21297;SDS011;10808;48.010;11.326;2022-11-03T11:57:43;5.70;;;2.55;;
21297;SDS011;10808;48.010;11.326;2022-11-03T12:00:20;5.50;;;2.80;;
21297;SDS011;10808;48.010;11.326;2022-11-03T12:02:49;5.00;;;2.80;;
21297;SDS011;10808;48.010;11.326;2022-11-03T12:05:29;4.88;;;2.50;;
21297;SDS011;10808;48.010;11.326;2022-11-03T12:07:57;5.22;;;2.50;;
21297;SDS011;10808;48.010;11.326;2022-11-03T12:10:28;8.57;;;2.60;;
21297;SDS011;10808;48.010;11.326;2022-11-03T12:13:10;4.50;;;2.53;;
21297;SDS011;10808;48.010;11.326;2022-11-03T12:16:25;4.50;;;2.60;;
21297;SDS011;10808;48.010;11.326;2022-11-03T12:18:53;6.15;;;2.70;;
21297;SDS011;10808;48.010;11.326;2022-11-03T12:24:33;4.77;;;3.00;;
21297;SDS011;10808;48.010;11.326;2022-11-03T12:27:02;4.78;;;2.67;;
21297;SDS011;10808;48.010;11.326;2022-11-03T12:29:40;4.90;;;2.80;;
21297;SDS011;10808;48.010;11.326;2022-11-03T12:32:07;4.13;;;2.93;;
21297;SDS011;10808;48.010;11.326;2022-11-03T12:34:33;4.33;;;2.60;;
21297;SDS011;10808;48.010;11.326;2022-11-03T12:36:59;3.77;;;2.63;;
21297;SDS011;10808;48.010;11.326;2022-11-03T12:39:25;6.47;;;2.93;;
21297;SDS011;10808;48.010;11.326;2022-11-03T12:41:51;4.80;;;2.70;;
21297;SDS011;10808;48.010;11.326;2022-11-03T12:44:17;4.70;;;2.90;;
21297;SDS011;10808;48.010;11.326;2022-11-03T12:46:43;4.73;;;2.90;;
21297;SDS011;10808;48.010;11.326;2022-11-03T12:49:09;3.73;;;2.70;;
21297;SDS011;10808;48.010;11.326;2022-11-03T12:51:35;4.60;;;2.60;;
21297;SDS011;10808;48.010;11.326;2022-11-03T12:54:01;5.50;;;2.83;;
21297;SDS011;10808;48.010;11.326;2022-11-03T12:56:27;5.63;;;3.00;;
21297;SDS011;10808;48.010;11.326;2022-11-03T12:58:53;5.93;;;3.00;;
21297;SDS011;10808;48.010;11.326;2022-11-03T13:01:19;5.07;;;3.10;;
21297;SDS011;10808;48.010;11.326;2022-11-03T13:03:45;4.63;;;3.20;;
21297;SDS011;10808;48.010;11.326;2022-11-03T13:06:11;6.37;;;3.10;;
21297;SDS011;10808;48.010;11.326;2022-11-03T13:08:39;5.43;;;3.08;;
21297;SDS011;10808;48.010;11.326;2022-11-03T13:11:05;4.87;;;3.10;;
21297;SDS011;10808;48.010;11.326;2022-11-03T13:13:50;4.77;;;3.10;;
21297;SDS011;10808;48.010;11.326;2022-11-03T13:16:17;6.30;;;3.20;;
21297;SDS011;10808;48.010;11.326;2022-11-03T13:18:47;5.47;;;2.90;;
21297;SDS011;10808;48.010;11.326;2022-11-03T13:24:17;4.75;;;2.80;;
21297;SDS011;10808;48.010;11.326;2022-11-03T13:26:43;5.70;;;2.90;;
21297;SDS011;10808;48.010;11.326;2022-11-03T13:29:09;4.70;;;2.70;;
21297;SDS011;10808;48.010;11.326;2022-11-03T13:31:35;7.60;;;3.30;;
21297;SDS011;10808;48.010;11.326;2022-11-03T13:34:02;5.10;;;3.30;;
21297;SDS011;10808;48.010;11.326;2022-11-03T13:36:28;7.47;;;3.50;;
21297;SDS011;10808;48.010;11.326;2022-11-03T13:38:54;8.00;;;3.28;;
21297;SDS011;10808;48.010;11.326;2022-11-03T13:41:20;7.57;;;3.50;;
21297;SDS011;10808;48.010;11.326;2022-11-03T13:43:46;13.18;;;3.38;;
21297;SDS011;10808;48.010;11.326;2022-11-03T13:46:12;7.22;;;3.35;;
21297;SDS011;10808;48.010;11.326;2022-11-03T13:48:38;6.43;;;3.08;;
21297;SDS011;10808;48.010;11.326;2022-11-03T13:51:04;8.75;;;3.25;;
21297;SDS011;10808;48.010;11.326;2022-11-03T13:53:30;6.95;;;3.30;;
21297;SDS011;10808;48.010;11.326;2022-11-03T13:55:56;6.30;;;3.13;;
21297;SDS011;10808;48.010;11.326;2022-11-03T13:58:22;8.73;;;3.75;;
21297;SDS011;10808;48.010;11.326;2022-11-03T14:00:48;6.75;;;3.78;;
21297;SDS011;10808;48.010;11.326;2022-11-03T14:03:14;9.20;;;4.35;;
21297;SDS011;10808;48.010;11.326;2022-11-03T14:05:40;11.75;;;4.38;;
21297;SDS011;10808;48.010;11.326;2022-11-03T14:08:06;8.80;;;4.47;;
21297;SDS011;10808;48.010;11.326;2022-11-03T14:10:32;7.55;;;3.85;;
21297;SDS011;10808;48.010;11.326;2022-11-03T14:12:58;9.43;;;4.20;;
21297;SDS011;10808;48.010;11.326;2022-11-03T14:15:25;12.07;;;4.22;;
21297;SDS011;10808;48.010;11.326;2022-11-03T14:17:51;14.30;;;4.60;;
21297;SDS011;10808;48.010;11.326;2022-11-03T14:20:17;13.82;;;5.07;;
21297;SDS011;10808;48.010;11.326;2022-11-03T14:22:43;11.43;;;4.80;;
21297;SDS011;10808;48.010;11.326;2022-11-03T14:25:09;13.68;;;4.60;;
21297;SDS011;10808;48.010;11.326;2022-11-03T14:27:35;9.18;;;4.43;;
21297;SDS011;10808;48.010;11.326;2022-11-03T14:30:04;7.15;;;4.50;;
21297;SDS011;10808;48.010;11.326;2022-11-03T14:32:31;9.10;;;4.40;;
21297;SDS011;10808;48.010;11.326;2022-11-03T14:34:57;10.00;;;4.70;;
21297;SDS011;10808;48.010;11.326;2022-11-03T14:37:23;8.85;;;5.13;;
21297;SDS011;10808;48.010;11.326;2022-11-03T14:39:49;7.90;;;5.10;;
21297;SDS011;10808;48.010;11.326;2022-11-03T14:42:15;9.73;;;5.05;;
21297;SDS011;10808;48.010;11.326;2022-11-03T14:44:42;7.95;;;4.97;;
21297;SDS011;10808;48.010;11.326;2022-11-03T14:47:13;10.95;;;5.32;;
21297;SDS011;10808;48.010;11.326;2022-11-03T14:49:42;10.10;;;6.25;;
21297;SDS011;10808;48.010;11.326;2022-11-03T14:52:08;10.93;;;6.40;;
21297;SDS011;10808;48.010;11.326;2022-11-03T14:54:34;9.95;;;6.18;;
21297;SDS011;10808;48.010;11.326;2022-11-03T14:57:01;10.40;;;6.25;;
21297;SDS011;10808;48.010;11.326;2022-11-03T14:59:27;10.20;;;6.95;;
21297;SDS011;10808;48.010;11.326;2022-11-03T15:01:54;12.07;;;6.60;;
21297;SDS011;10808;48.010;11.326;2022-11-03T15:04:20;14.05;;;7.32;;
21297;SDS011;10808;48.010;11.326;2022-11-03T15:06:47;10.38;;;6.50;;
21297;SDS011;10808;48.010;11.326;2022-11-03T15:09:13;13.30;;;6.93;;
21297;SDS011;10808;48.010;11.326;2022-11-03T15:11:58;11.75;;;6.95;;
21297;SDS011;10808;48.010;11.326;2022-11-03T15:14:24;14.25;;;6.60;;
21297;SDS011;10808;48.010;11.326;2022-11-03T15:16:50;12.60;;;6.43;;
21297;SDS011;10808;48.010;11.326;2022-11-03T15:19:16;9.38;;;6.50;;
21297;SDS011;10808;48.010;11.326;2022-11-03T15:21:42;18.02;;;10.23;;
21297;SDS011;10808;48.010;11.326;2022-11-03T15:24:08;12.20;;;7.85;;
21297;SDS011;10808;48.010;11.326;2022-11-03T15:26:34;14.13;;;7.97;;
21297;SDS011;10808;48.010;11.326;2022-11-03T15:29:00;11.48;;;7.63;;
21297;SDS011;10808;48.010;11.326;2022-11-03T15:31:26;12.38;;;7.53;;
21297;SDS011;10808;48.010;11.326;2022-11-03T15:33:52;13.43;;;8.23;;
21297;SDS011;10808;48.010;11.326;2022-11-03T15:36:18;25.10;;;18.07;;
21297;SDS011;10808;48.010;11.326;2022-11-03T15:38:45;24.45;;;17.25;;
21297;SDS011;10808;48.010;11.326;2022-11-03T15:41:11;75.35;;;45.13;;
21297;SDS011;10808;48.010;11.326;2022-11-03T15:43:43;19.90;;;12.35;;
21297;SDS011;10808;48.010;11.326;2022-11-03T15:46:11;14.43;;;9.30;;
21297;SDS011;10808;48.010;11.326;2022-11-03T15:48:37;10.17;;;7.37;;
21297;SDS011;10808;48.010;11.326;2022-11-03T15:51:03;12.38;;;7.38;;
21297;SDS011;10808;48.010;11.326;2022-11-03T15:53:30;12.05;;;7.13;;
21297;SDS011;10808;48.010;11.326;2022-11-03T15:55:56;11.63;;;6.57;;
21297;SDS011;10808;48.010;11.326;2022-11-03T15:58:22;11.55;;;6.90;;
21297;SDS011;10808;48.010;11.326;2022-11-03T16:00:48;12.30;;;7.70;;
21297;SDS011;10808;48.010;11.326;2022-11-03T16:03:14;13.57;;;7.75;;
21297;SDS011;10808;48.010;11.326;2022-11-03T16:08:39;14.43;;;7.50;;
21297;SDS011;10808;48.010;11.326;2022-11-03T16:11:05;10.70;;;6.90;;
21297;SDS011;10808;48.010;11.326;2022-11-03T16:13:31;11.00;;;6.80;;
21297;SDS011;10808;48.010;11.326;2022-11-03T16:15:57;10.02;;;6.15;;
21297;SDS011;10808;48.010;11.326;2022-11-03T16:18:23;12.23;;;6.45;;
21297;SDS011;10808;48.010;11.326;2022-11-03T16:20:49;14.25;;;7.22;;
21297;SDS011;10808;48.010;11.326;2022-11-03T16:23:15;22.33;;;17.35;;
21297;SDS011;10808;48.010;11.326;2022-11-03T16:25:41;15.85;;;11.50;;
21297;SDS011;10808;48.010;11.326;2022-11-03T16:28:07;18.15;;;12.10;;
21297;SDS011;10808;48.010;11.326;2022-11-03T16:30:42;20.73;;;10.97;;
21297;SDS011;10808;48.010;11.326;2022-11-03T16:33:08;14.30;;;9.50;;
21297;SDS011;10808;48.010;11.326;2022-11-03T16:35:34;11.82;;;6.10;;
21297;SDS011;10808;48.010;11.326;2022-11-03T16:38:00;10.02;;;6.05;;